createdAt,value
2023-04-20T00:01:14.552Z,101491.06
2023-04-20T00:03:42.221Z,101489.16
2023-04-20T00:06:10.784Z,101488.22
2023-04-20T00:08:38.548Z,101482.28
2023-04-20T00:11:07.520Z,101480.38
2023-04-20T00:13:36.022Z,101476.97
2023-04-20T00:16:03.572Z,101479.72
2023-04-20T00:18:31.358Z,101470.38
2023-04-20T00:20:59.024Z,101466.56
2023-04-20T00:23:28.482Z,101456.16
2023-04-20T00:25:56.085Z,101452.47
2023-04-20T00:28:25.452Z,101446.03
2023-04-20T00:30:53.067Z,101441.88
2023-04-20T00:33:20.666Z,101442.63
2023-04-20T00:35:48.348Z,101437.53
2023-04-20T00:38:18.303Z,101429.66
2023-04-20T00:40:48.821Z,101430.53
2023-04-20T00:43:52.565Z,101429.28
2023-04-20T00:46:20.777Z,101430.31
2023-04-20T00:48:50.949Z,101424.84
2023-04-20T00:51:19.222Z,101424.91
2023-04-20T00:53:46.936Z,101416.78
2023-04-20T00:56:16.351Z,101412.50
2023-04-20T00:58:48.308Z,101418.16
2023-04-20T01:01:18.249Z,101418.06
2023-04-20T01:03:47.542Z,101417.94
2023-04-20T01:06:17.000Z,101409.25
2023-04-20T01:08:49.328Z,101405.66
2023-04-20T01:11:20.979Z,101393.13
2023-04-20T01:13:50.344Z,101393.91
2023-04-20T01:16:19.440Z,101391.88
2023-04-20T01:18:48.642Z,101385.41
2023-04-20T01:21:23.307Z,101384.25
2023-04-20T01:23:54.480Z,101376.19
2023-04-20T01:26:25.203Z,101364.75
2023-04-20T01:28:52.815Z,101369.19
2023-04-20T01:31:44.906Z,101369.72
2023-04-20T01:34:13.456Z,101364.63
2023-04-20T01:36:41.711Z,101351.50
2023-04-20T01:39:11.850Z,101348.84
2023-04-20T01:41:42.280Z,101343.66
2023-04-20T01:44:10.803Z,101343.66
2023-04-20T01:46:40.403Z,101346.91
2023-04-20T01:49:08.664Z,101331.13
2023-04-20T01:51:38.425Z,101332.63
2023-04-20T01:54:06.448Z,101334.75
2023-04-20T01:56:36.610Z,101328.69
2023-04-20T01:59:04.400Z,101325.94
2023-04-20T02:01:32.111Z,101330.28
2023-04-20T02:04:01.483Z,101334.31
2023-04-20T02:06:29.393Z,101327.09
2023-04-20T02:08:58.736Z,101322.88
2023-04-20T02:11:26.380Z,101332.50
2023-04-20T02:13:56.293Z,101328.25
2023-04-20T02:16:24.694Z,101318.63
2023-04-20T02:18:52.754Z,101321.38
2023-04-20T02:21:20.270Z,101320.41
2023-04-20T02:23:48.418Z,101310.78
2023-04-20T02:26:16.736Z,101315.44
2023-04-20T02:29:10.868Z,101319.78
2023-04-20T02:31:38.655Z,101324.16
2023-04-20T02:34:09.280Z,101315.53
2023-04-20T02:36:40.748Z,101313.84
2023-04-20T02:39:10.092Z,101308.66
2023-04-20T02:41:37.644Z,101312.16
2023-04-20T02:44:06.410Z,101315.66
2023-04-20T02:46:38.505Z,101310.44
2023-04-20T02:49:08.403Z,101309.09
2023-04-20T02:51:40.929Z,101321.88
2023-04-20T02:54:08.635Z,101316.59
2023-04-20T02:56:36.948Z,101311.63
2023-04-20T02:59:09.404Z,101306.50
2023-04-20T03:01:44.424Z,101308.53
2023-04-20T03:04:16.019Z,101306.75
2023-04-20T03:06:51.572Z,101307.78
2023-04-20T03:09:26.394Z,101310.72
2023-04-20T03:12:27.169Z,101304.59
2023-04-20T03:15:13.480Z,101305.66
2023-04-20T03:17:53.352Z,101303.00
2023-04-20T03:20:20.986Z,101300.34
2023-04-20T03:22:51.018Z,101295.19
2023-04-20T03:25:21.315Z,101285.63
2023-04-20T03:28:16.336Z,101282.97
2023-04-20T03:30:44.347Z,101282.34
2023-04-20T03:33:17.446Z,101289.34
2023-04-20T03:35:45.304Z,101278.09
2023-04-20T03:38:14.654Z,101279.25
2023-04-20T03:40:43.792Z,101287.41
2023-04-20T03:43:13.041Z,101292.88
2023-04-20T03:45:41.311Z,101285.16
2023-04-20T03:48:09.020Z,101275.31
2023-04-20T03:50:39.271Z,101279.03
2023-04-20T03:53:07.094Z,101275.00
2023-04-20T03:55:34.893Z,101279.53
2023-04-20T03:58:06.800Z,101257.41
2023-04-20T04:00:45.326Z,101258.44
2023-04-20T04:03:15.701Z,101264.69
2023-04-20T04:05:46.313Z,101271.91
2023-04-20T04:08:16.295Z,101270.94
2023-04-20T04:10:45.288Z,101267.56
2023-04-20T04:13:12.872Z,101259.94
2023-04-20T04:15:40.982Z,101267.88
2023-04-20T04:18:13.182Z,101277.50
2023-04-20T04:20:41.979Z,101264.56
2023-04-20T04:23:13.358Z,101269.84
2023-04-20T04:25:47.193Z,101273.47
2023-04-20T04:28:16.762Z,101272.59
2023-04-20T04:30:56.057Z,101262.97
2023-04-20T04:33:25.368Z,101265.72
2023-04-20T04:35:55.154Z,101266.78
2023-04-20T04:38:25.229Z,101277.56
2023-04-20T04:40:53.804Z,101276.91
2023-04-20T04:43:21.562Z,101279.84
2023-04-20T04:45:59.641Z,101278.25
2023-04-20T04:48:28.741Z,101272.97
2023-04-20T04:50:56.290Z,101277.41
2023-04-20T04:53:26.117Z,101285.75
2023-04-20T04:55:53.647Z,101283.19
2023-04-20T04:58:22.351Z,101276.97
2023-04-20T05:00:50.894Z,101273.16
2023-04-20T05:03:18.938Z,101269.66
2023-04-20T05:05:46.764Z,101261.63
2023-04-20T05:08:15.883Z,101264.59
2023-04-20T05:10:44.884Z,101257.78
2023-04-20T05:13:12.452Z,101263.09
2023-04-20T05:15:41.275Z,101264.66
2023-04-20T05:18:10.973Z,101262.13
2023-04-20T05:20:39.016Z,101266.47
2023-04-20T05:23:07.298Z,101264.59
2023-04-20T05:25:34.965Z,101273.09
2023-04-20T05:28:04.279Z,101275.56
2023-04-20T05:30:35.918Z,101278.22
2023-04-20T05:33:03.680Z,101285.47
2023-04-20T05:35:32.304Z,101283.50
2023-04-20T05:38:02.503Z,101287.06
2023-04-20T05:40:30.207Z,101288.88
2023-04-20T05:42:57.765Z,101291.22
2023-04-20T05:45:28.156Z,101290.25
2023-04-20T05:47:56.695Z,101282.16
2023-04-20T05:50:24.790Z,101291.66
2023-04-20T05:52:53.439Z,101291.22
2023-04-20T05:55:22.869Z,101289.63
2023-04-20T05:57:52.580Z,101287.84
2023-04-20T06:00:24.437Z,101282.34
2023-04-20T06:02:55.659Z,101286.78
2023-04-20T06:05:23.762Z,101291.13
2023-04-20T06:07:51.816Z,101299.81
2023-04-20T06:10:19.435Z,101299.25
2023-04-20T06:12:49.352Z,101297.34
2023-04-20T06:15:17.442Z,101302.66
2023-04-20T06:17:46.364Z,101299.94
2023-04-20T06:20:18.297Z,101302.75
2023-04-20T06:22:47.259Z,101300.84
2023-04-20T06:25:16.076Z,101302.66
2023-04-20T06:27:43.726Z,101295.66
2023-04-20T06:30:12.209Z,101290.94
2023-04-20T06:32:39.819Z,101298.97
2023-04-20T06:35:12.303Z,101293.69
2023-04-20T06:37:41.152Z,101295.38
2023-04-20T06:40:15.002Z,101290.81
2023-04-20T06:42:43.913Z,101290.81
2023-04-20T06:45:12.753Z,101295.09
2023-04-20T06:47:40.538Z,101297.06
2023-04-20T06:50:10.366Z,101295.47
2023-04-20T06:52:38.087Z,101288.19
2023-04-20T06:55:08.311Z,101295.09
2023-04-20T06:57:38.477Z,101296.97
2023-04-20T07:00:09.593Z,101300.44
2023-04-20T07:02:44.728Z,101297.91
2023-04-20T07:05:14.430Z,101290.25
2023-04-20T07:07:42.558Z,101285.91
2023-04-20T07:10:13.350Z,101293.72
2023-04-20T07:12:43.482Z,101290.88
2023-04-20T07:15:12.418Z,101284.44
2023-04-20T07:17:41.391Z,101283.38
2023-04-20T07:20:10.217Z,101284.34
2023-04-20T07:22:41.618Z,101286.13
2023-04-20T07:25:14.318Z,101278.84
2023-04-20T07:27:43.686Z,101287.53
2023-04-20T07:30:13.419Z,101274.31
2023-04-20T07:32:45.334Z,101275.91
2023-04-20T07:35:12.955Z,101272.19
2023-04-20T07:37:41.316Z,101282.06
2023-04-20T07:40:13.410Z,101281.09
2023-04-20T07:42:43.157Z,101274.13
2023-04-20T07:45:12.038Z,101283.09
2023-04-20T07:47:40.387Z,101286.50
2023-04-20T07:50:09.114Z,101283.53
2023-04-20T07:52:37.401Z,101288.47
2023-04-20T07:55:08.063Z,101286.28
2023-04-20T07:57:37.771Z,101282.25
2023-04-20T08:00:07.383Z,101289.16
2023-04-20T08:02:40.509Z,101278.63
2023-04-20T08:05:10.032Z,101278.00
2023-04-20T08:07:39.328Z,101281.28
2023-04-20T08:10:08.376Z,101279.47
2023-04-20T08:12:38.423Z,101274.84
2023-04-20T08:15:07.160Z,101273.38
2023-04-20T08:17:35.297Z,101284.91
2023-04-20T08:20:04.736Z,101270.72
2023-04-20T08:22:33.455Z,101272.66
2023-04-20T08:25:01.645Z,101272.78
2023-04-20T08:27:30.563Z,101271.72
2023-04-20T08:29:59.656Z,101262.31
2023-04-20T08:32:27.598Z,101264.75
2023-04-20T08:34:56.314Z,101258.41
2023-04-20T08:37:25.124Z,101261.59
2023-04-20T08:39:52.685Z,101255.34
2023-04-20T08:42:20.997Z,101250.59
2023-04-20T08:44:48.663Z,101246.13
2023-04-20T08:47:17.544Z,101254.28
2023-04-20T08:49:47.324Z,101250.03
2023-04-20T08:52:15.808Z,101254.38
2023-04-20T08:54:55.941Z,101261.25
2023-04-20T08:57:25.463Z,101243.31
2023-04-20T08:59:54.528Z,101250.63
2023-04-20T09:02:23.753Z,101243.16
2023-04-20T09:05:02.018Z,101251.75
2023-04-20T09:07:31.314Z,101250.34
2023-04-20T09:10:27.618Z,101262.19
2023-04-20T09:12:55.929Z,101255.50
2023-04-20T09:15:27.973Z,101251.03
2023-04-20T09:17:57.822Z,101253.06
2023-04-20T09:20:36.409Z,101252.41
2023-04-20T09:23:13.697Z,101261.84
2023-04-20T09:25:46.037Z,101257.63
2023-04-20T09:28:14.302Z,101265.06
2023-04-20T09:30:44.391Z,101255.19
2023-04-20T09:33:16.260Z,101266.09
2023-04-20T09:35:46.403Z,101266.09
2023-04-20T09:38:17.093Z,101268.03
2023-04-20T09:41:09.006Z,101262.53
2023-04-20T09:43:37.723Z,101257.63
2023-04-20T09:46:07.261Z,101258.16
2023-04-20T09:48:37.284Z,101253.75
2023-04-20T09:51:06.559Z,101253.47
2023-04-20T09:53:35.888Z,101245.50
2023-04-20T09:56:06.295Z,101243.34
2023-04-20T09:58:36.457Z,101240.03
2023-04-20T10:01:04.270Z,101242.75
2023-04-20T10:03:32.188Z,101251.22
2023-04-20T10:06:01.310Z,101246.16
2023-04-20T10:08:41.320Z,101256.53
2023-04-20T10:11:09.302Z,101256.44
2023-04-20T10:13:38.756Z,101247.34
2023-04-20T10:16:18.591Z,101250.72
2023-04-20T10:18:57.610Z,101251.13
2023-04-20T10:21:27.793Z,101251.28
2023-04-20T10:23:56.348Z,101259.25
2023-04-20T10:26:24.162Z,101247.19
2023-04-20T10:28:51.824Z,101257.59
2023-04-20T10:31:21.939Z,101260.63
2023-04-20T10:33:55.406Z,101245.56
2023-04-20T10:36:32.125Z,101248.22
2023-04-20T10:39:01.375Z,101242.78
2023-04-20T10:41:31.057Z,101232.53
2023-04-20T10:44:08.519Z,101236.38
2023-04-20T10:46:36.137Z,101239.06
2023-04-20T10:49:03.858Z,101240.06
2023-04-20T10:51:32.796Z,101238.25
2023-04-20T10:54:02.151Z,101249.84
2023-04-20T10:56:37.835Z,101239.94
2023-04-20T10:59:10.374Z,101239.94
2023-04-20T11:01:39.903Z,101241.75
2023-04-20T11:04:08.068Z,101230.59
2023-04-20T11:06:37.700Z,101226.84
2023-04-20T11:09:05.990Z,101226.47
2023-04-20T11:11:33.598Z,101225.81
2023-04-20T11:14:09.929Z,101221.47
2023-04-20T11:16:51.379Z,101220.59
2023-04-20T11:19:25.319Z,101215.09
2023-04-20T11:21:55.542Z,101210.00
2023-04-20T11:24:25.598Z,101211.41
2023-04-20T11:26:54.830Z,101211.97
2023-04-20T11:29:30.803Z,101209.69
2023-04-20T11:31:59.367Z,101212.09
2023-04-20T11:34:27.316Z,101206.19
2023-04-20T11:36:56.914Z,101212.81
2023-04-20T11:39:26.347Z,101214.75
2023-04-20T11:41:54.088Z,101208.72
2023-04-20T11:44:22.203Z,101206.59
2023-04-20T11:46:50.314Z,101209.97
2023-04-20T11:49:18.464Z,101206.59
2023-04-20T11:51:47.449Z,101215.88
2023-04-20T11:54:16.745Z,101202.94
2023-04-20T11:56:46.713Z,101199.31
2023-04-20T11:59:16.869Z,101208.16
2023-04-20T12:01:45.364Z,101194.72
2023-04-20T12:04:13.147Z,101198.91
2023-04-20T12:06:41.359Z,101200.50
2023-04-20T12:09:08.868Z,101196.47
2023-04-20T12:11:38.247Z,101202.50
2023-04-20T12:14:06.463Z,101206.81
2023-04-20T12:16:34.202Z,101202.16
2023-04-20T12:19:01.855Z,101206.56
2023-04-20T12:21:29.472Z,101206.13
2023-04-20T12:23:58.441Z,101201.91
2023-04-20T12:26:37.371Z,101206.59
2023-04-20T12:29:08.085Z,101202.09
2023-04-20T12:31:36.414Z,101196.25
2023-04-20T12:34:05.501Z,101199.75
2023-04-20T12:36:34.754Z,101193.44
2023-04-20T12:39:06.325Z,101196.81
2023-04-20T12:41:34.322Z,101186.06
2023-04-20T12:44:07.031Z,101199.94
2023-04-20T12:46:37.120Z,101198.84
2023-04-20T12:49:04.703Z,101191.41
2023-04-20T12:51:35.312Z,101188.38
2023-04-20T12:54:03.014Z,101190.91
2023-04-20T12:56:30.673Z,101178.88
2023-04-20T12:58:58.399Z,101175.41
2023-04-20T13:01:26.746Z,101185.53
2023-04-20T13:03:56.420Z,101181.03
2023-04-20T13:06:24.542Z,101174.91
2023-04-20T13:08:52.291Z,101178.78
2023-04-20T13:11:19.905Z,101174.09
2023-04-20T13:13:47.748Z,101169.50
2023-04-20T13:16:15.562Z,101168.75
2023-04-20T13:18:43.305Z,101168.38
2023-04-20T13:21:12.227Z,101160.66
2023-04-20T13:23:40.026Z,101160.53
2023-04-20T13:26:08.395Z,101153.56
2023-04-20T13:28:37.589Z,101157.94
2023-04-20T13:31:06.475Z,101166.38
2023-04-20T13:33:34.265Z,101166.59
2023-04-20T13:36:03.335Z,101162.53
2023-04-20T13:38:33.710Z,101162.53
2023-04-20T13:41:01.301Z,101159.88
2023-04-20T13:43:29.416Z,101163.91
2023-04-20T13:45:57.378Z,101152.53
2023-04-20T13:48:28.326Z,101142.28
2023-04-20T13:50:56.057Z,101150.00
2023-04-20T13:53:23.795Z,101137.69
2023-04-20T13:55:52.873Z,101143.56
2023-04-20T13:58:20.494Z,101136.34
2023-04-20T14:00:48.057Z,101130.88
2023-04-20T14:03:18.709Z,101137.06
2023-04-20T14:05:46.444Z,101127.53
2023-04-20T14:08:16.330Z,101124.28
2023-04-20T14:10:44.807Z,101117.94
2023-04-20T14:13:15.353Z,101118.53
2023-04-20T14:15:43.509Z,101106.97
2023-04-20T14:18:11.389Z,101114.28
2023-04-20T14:20:38.994Z,101110.66
2023-04-20T14:23:09.421Z,101113.19
2023-04-20T14:25:41.280Z,101104.44
2023-04-20T14:28:09.323Z,101110.34
2023-04-20T14:30:39.116Z,101112.84
2023-04-20T14:33:32.461Z,101113.25
2023-04-20T14:36:00.055Z,101118.59
2023-04-20T14:38:27.650Z,101103.56
2023-04-20T14:40:55.213Z,101107.06
2023-04-20T14:43:23.208Z,101100.28
2023-04-20T14:45:52.128Z,101100.88
2023-04-20T14:48:19.837Z,101107.91
2023-04-20T14:50:47.451Z,101105.34
2023-04-20T14:53:15.034Z,101103.41
2023-04-20T14:55:44.331Z,101098.34
2023-04-20T14:58:13.431Z,101091.91
2023-04-20T15:00:40.991Z,101098.81
2023-04-20T15:03:11.771Z,101090.13
2023-04-20T15:05:39.610Z,101092.66
2023-04-20T15:08:07.437Z,101091.09
2023-04-20T15:10:35.887Z,101101.66
2023-04-20T15:13:05.758Z,101106.03
2023-04-20T15:15:46.959Z,101095.75
2023-04-20T15:18:17.280Z,101070.75
2023-04-20T15:20:45.103Z,101075.50
2023-04-20T15:23:13.368Z,101073.41
2023-04-20T15:25:40.977Z,101078.34
2023-04-20T15:28:08.542Z,101079.59
2023-04-20T15:30:36.336Z,101084.53
2023-04-20T15:33:05.894Z,101079.44
2023-04-20T15:35:38.330Z,101074.41
2023-04-20T15:38:06.032Z,101077.50
2023-04-20T15:40:34.471Z,101074.28
2023-04-20T15:43:03.436Z,101077.34
2023-04-20T15:48:24.251Z,101080.84
2023-04-20T15:50:53.353Z,101075.94
2023-04-20T15:53:22.085Z,101075.22
2023-04-20T15:55:49.819Z,101073.25
2023-04-20T15:58:17.640Z,101075.91
2023-04-20T16:00:46.148Z,101081.38
2023-04-20T16:03:14.574Z,101069.56
2023-04-20T16:05:43.441Z,101068.13
2023-04-20T16:08:13.057Z,101072.00
2023-04-20T16:10:40.660Z,101072.31
2023-04-20T16:13:08.214Z,101078.63
2023-04-20T16:15:36.123Z,101076.00
2023-04-20T16:18:05.305Z,101082.28
2023-04-20T16:20:33.784Z,101080.84
2023-04-20T16:23:01.390Z,101079.13
2023-04-20T16:25:32.375Z,101095.94
2023-04-20T16:28:00.573Z,101096.19
2023-04-20T16:30:28.263Z,101102.47
2023-04-20T16:32:55.900Z,101109.03
2023-04-20T16:35:23.687Z,101108.97
2023-04-20T16:37:51.369Z,101112.09
2023-04-20T16:40:20.776Z,101104.47
2023-04-20T16:42:49.726Z,101105.13
2023-04-20T16:45:17.429Z,101104.59
2023-04-20T16:47:45.184Z,101117.25
2023-04-20T16:50:19.151Z,101119.72
2023-04-20T16:52:47.065Z,101110.97
2023-04-20T16:55:14.600Z,101103.75
2023-04-20T16:57:42.234Z,101095.31
2023-04-20T17:00:12.892Z,101104.25
2023-04-20T17:02:40.853Z,101106.59
2023-04-20T17:05:09.284Z,101110.72
2023-04-20T17:07:37.265Z,101110.53
2023-04-20T17:10:05.246Z,101109.09
2023-04-20T17:12:33.456Z,101111.59
2023-04-20T17:15:01.306Z,101107.53
2023-04-20T17:17:30.400Z,101115.28
2023-04-20T17:19:57.990Z,101117.09
2023-04-20T17:22:25.753Z,101119.19
2023-04-20T17:24:54.453Z,101117.38
2023-04-20T17:27:23.528Z,101113.97
2023-04-20T17:29:51.595Z,101114.94
2023-04-20T17:32:19.216Z,101118.72
2023-04-20T17:34:51.134Z,101125.25
2023-04-20T17:37:18.966Z,101126.91
2023-04-20T17:39:47.391Z,101121.47
2023-04-20T17:42:15.864Z,101123.75
2023-04-20T17:44:45.474Z,101131.66
2023-04-20T17:47:14.728Z,101138.16
2023-04-20T17:49:43.385Z,101134.66
2023-04-20T17:52:15.055Z,101132.88
2023-04-20T17:54:44.350Z,101134.06
2023-04-20T17:57:15.979Z,101140.25
2023-04-20T17:59:44.422Z,101134.31
2023-04-20T18:02:12.144Z,101136.97
2023-04-20T18:04:40.049Z,101143.50
2023-04-20T18:07:07.699Z,101149.44
2023-04-20T18:09:36.748Z,101143.28
2023-04-20T18:12:07.751Z,101145.78
2023-04-20T18:14:35.348Z,101152.22
2023-04-20T18:17:03.153Z,101144.97
2023-04-20T18:19:32.530Z,101155.44
2023-04-20T18:22:00.145Z,101147.47
2023-04-20T18:24:29.358Z,101143.28
2023-04-20T18:26:59.204Z,101143.13
2023-04-20T18:29:28.801Z,101138.19
2023-04-20T18:31:59.167Z,101137.34
2023-04-20T18:34:29.846Z,101127.94
2023-04-20T18:36:57.980Z,101122.72
2023-04-20T18:39:26.495Z,101115.00
2023-04-20T18:41:54.237Z,101128.78
2023-04-20T18:44:23.302Z,101132.63
2023-04-20T18:46:51.173Z,101131.94
2023-04-20T18:49:18.740Z,101142.78
2023-04-20T18:51:49.897Z,101143.50
2023-04-20T18:54:17.835Z,101144.59
2023-04-20T18:56:45.780Z,101144.59
2023-04-20T18:59:13.782Z,101135.91
2023-04-20T19:01:42.868Z,101127.81
2023-04-20T19:04:10.588Z,101120.06
2023-04-20T19:06:39.537Z,101129.25
2023-04-20T19:09:08.328Z,101138.91
2023-04-20T19:11:36.101Z,101128.41
2023-04-20T19:14:03.788Z,101132.75
2023-04-20T19:16:31.910Z,101134.44
2023-04-20T19:19:01.312Z,101137.94
2023-04-20T19:21:29.830Z,101131.66
2023-04-20T19:23:57.536Z,101126.72
2023-04-20T19:26:25.233Z,101125.16
2023-04-20T19:28:53.779Z,101131.06
2023-04-20T19:31:21.481Z,101136.38
2023-04-20T19:33:49.060Z,101136.75
2023-04-20T19:36:19.067Z,101136.03
2023-04-20T19:38:50.383Z,101133.38
2023-04-20T19:41:18.817Z,101125.88
2023-04-20T19:43:47.789Z,101130.31
2023-04-20T19:46:17.022Z,101122.63
2023-04-20T19:48:45.210Z,101124.28
2023-04-20T19:51:12.952Z,101122.47
2023-04-20T19:53:41.966Z,101120.91
2023-04-20T19:56:09.705Z,101120.16
2023-04-20T19:58:37.505Z,101120.78
2023-04-20T20:01:05.716Z,101106.66
2023-04-20T20:03:33.524Z,101107.16
2023-04-20T20:06:01.555Z,101107.50
2023-04-20T20:08:29.846Z,101099.53
2023-04-20T20:11:00.148Z,101112.69
2023-04-20T20:13:28.061Z,101111.34
2023-04-20T20:15:55.755Z,101113.91
2023-04-20T20:18:24.208Z,101100.63
2023-04-20T20:20:51.890Z,101102.78
2023-04-20T20:23:19.553Z,101099.88
2023-04-20T20:25:47.181Z,101108.69
2023-04-20T20:28:16.471Z,101112.09
2023-04-20T20:30:45.182Z,101108.59
2023-04-20T20:33:13.932Z,101100.25
2023-04-20T20:35:41.557Z,101109.56
2023-04-20T20:38:10.728Z,101111.13
2023-04-20T20:40:39.622Z,101103.78
2023-04-20T20:43:07.329Z,101107.00
2023-04-20T20:45:37.479Z,101111.97
2023-04-20T20:48:05.615Z,101105.94
2023-04-20T20:50:33.245Z,101110.28
2023-04-20T20:53:01.098Z,101098.06
2023-04-20T20:55:28.654Z,101093.84
2023-04-20T20:57:56.220Z,101092.03
2023-04-20T21:00:23.826Z,101092.88
2023-04-20T21:02:53.313Z,101085.88
2023-04-20T21:05:22.758Z,101079.63
2023-04-20T21:07:51.169Z,101072.75
2023-04-20T21:10:18.744Z,101072.75
2023-04-20T21:12:46.459Z,101078.06
2023-04-20T21:15:14.380Z,101071.06
2023-04-20T21:17:41.937Z,101065.97
2023-04-20T21:20:12.354Z,101047.66
2023-04-20T21:22:40.109Z,101063.66
2023-04-20T21:25:09.381Z,101072.59
2023-04-20T21:27:37.002Z,101063.06
2023-04-20T21:30:05.305Z,101069.34
2023-04-20T21:32:33.360Z,101060.44
2023-04-20T21:35:00.921Z,101052.56
2023-04-20T21:37:29.807Z,101056.47
2023-04-20T21:39:58.455Z,101046.06
2023-04-20T21:42:26.224Z,101051.38
2023-04-20T21:44:53.815Z,101039.78
2023-04-20T21:47:21.617Z,101041.59
2023-04-20T21:49:49.256Z,101047.66
2023-04-20T21:52:16.882Z,101037.88
2023-04-20T21:54:46.427Z,101030.75
2023-04-20T21:57:14.949Z,101037.50
2023-04-20T21:59:42.620Z,101035.81
2023-04-20T22:02:10.342Z,101024.97
2023-04-20T22:04:38.175Z,101024.97
2023-04-20T22:07:05.890Z,101020.72
2023-04-20T22:09:33.496Z,101020.63
2023-04-20T22:12:03.253Z,101010.72
2023-04-20T22:14:32.522Z,101007.22
2023-04-20T22:17:01.642Z,101007.22
2023-04-20T22:19:30.380Z,101009.75
2023-04-20T22:21:57.902Z,101004.31
2023-04-20T22:24:25.596Z,101004.22
2023-04-20T22:26:53.826Z,100999.13
2023-04-20T22:29:22.940Z,101002.28
2023-04-20T22:31:50.629Z,100993.34
2023-04-20T22:34:18.450Z,100990.69
2023-04-20T22:36:46.369Z,100988.75
2023-04-20T22:39:13.956Z,100983.44
2023-04-20T22:41:41.528Z,100992.16
2023-04-20T22:44:09.104Z,100988.53
2023-04-20T22:46:38.118Z,100987.41
2023-04-20T22:49:05.807Z,100982.00
2023-04-20T22:51:33.859Z,100972.94
2023-04-20T22:54:02.425Z,100965.69
2023-04-20T22:56:30.256Z,100965.69
2023-04-20T22:58:57.812Z,100964.63
2023-04-20T23:01:27.420Z,100962.09
2023-04-20T23:03:56.508Z,100958.47
2023-04-20T23:06:24.570Z,100948.69
2023-04-20T23:08:52.360Z,100947.59
2023-04-20T23:11:20.710Z,100944.56
2023-04-20T23:13:48.332Z,100934.06
2023-04-20T23:16:16.420Z,100928.63
2023-04-20T23:18:44.019Z,100916.47
2023-04-20T23:21:13.525Z,100911.84
2023-04-20T23:23:41.053Z,100907.75
2023-04-20T23:26:08.989Z,100901.59
2023-04-20T23:28:37.604Z,100900.53
2023-04-20T23:31:05.990Z,100895.22
2023-04-20T23:33:34.379Z,100890.59
2023-04-20T23:36:01.945Z,100881.81
2023-04-20T23:38:30.894Z,100888.09
2023-04-20T23:40:58.483Z,100884.09
2023-04-20T23:43:26.146Z,100884.47
2023-04-20T23:45:53.932Z,100886.84
2023-04-20T23:48:22.462Z,100884.56
2023-04-20T23:50:52.549Z,100889.00
2023-04-20T23:53:20.357Z,100886.59
2023-04-20T23:55:53.347Z,100886.47
2023-04-20T23:58:21.248Z,100874.50
